Time;durP1;ratioP1;P1;durP2;ratioP2;P2;SDS_P1;SDS_P2;PMS_P1;PMS_P2;Temp;Humidity;BMP_temperature;BMP_pressure;BME280_temperature;BME280_humidity;BME280_pressure;Samples;Min_cycle;Max_cycle;Signal;HPM_P1;HPM_P2
2023/08/02 00:01:54;;;;;;;11.30;7.17;;;;;;;;;;602948;23;21866;-96
2023/08/02 00:03:09;;;;;;;9.05;6.88;;;;;;;;;;2024658;29;20041;-96
2023/08/02 00:04:50;;;;;;;9.80;7.32;;;;;;;;;;2029735;29;20054;-96
2023/08/02 00:05:58;;;;;;;7.70;6.88;;;;;;;;;;2035075;29;20100;-96
2023/08/02 00:07:09;;;;;;;;;;;;;;;;;;;;;
2023/08/02 00:14:37;;;;;;;7.53;6.80;;;;;;;;;;2146895;23;20344;-95
2023/08/02 00:15:46;;;;;;;7.90;7.05;;;;;;;;;;2027258;29;20056;-96
2023/08/02 00:16:55;;;;;;;7.45;6.30;;;;;;;;;;2019093;29;20052;-96
2023/08/02 00:17:56;;;;;;;7.63;6.85;;;;;;;;;;2020568;29;20048;-96
2023/08/02 00:19:05;;;;;;;10.05;6.78;;;;;;;;;;2026230;29;20039;-96
2023/08/02 00:20:09;;;;;;;7.50;6.70;;;;;;;;;;2026169;29;20127;-96
2023/08/02 00:21:17;;;;;;;7.76;7.06;;;;;;;;;;1885306;29;10208580;-96
2023/08/02 00:22:18;;;;;;;10.70;7.55;;;;;;;;;;2020366;29;20306;-95
2023/08/02 01:45:00;;;;;;;9.90;7.75;;;;;;;;;;647794;23;20322;-94
2023/08/02 01:46:01;;;;;;;9.75;7.18;;;;;;;;;;2031349;29;20071;-96
2023/08/02 01:47:08;;;;;;;8.13;7.07;;;;;;;;;;2025618;29;20158;-96
2023/08/02 01:48:28;;;;;;;8.60;7.70;;;;;;;;;;2019488;29;20033;-95
2023/08/02 01:49:31;;;;;;;8.75;7.20;;;;;;;;;;2022327;29;20035;-95
2023/08/02 01:50:36;;;;;;;8.52;7.63;;;;;;;;;;2020900;29;20059;-96
2023/08/02 01:51:51;;;;;;;;;;;;;;;;;;;;;
2023/08/02 01:53:04;;;;;;;9.23;7.40;;;;;;;;;;2032892;29;20035;-96
2023/08/02 01:54:17;;;;;;;;;;;;;;;;;;;;;
2023/08/02 01:55:27;;;;;;;9.13;7.38;;;;;;;;;;2025435;29;20485;-96
2023/08/02 01:56:33;;;;;;;10.95;7.38;;;;;;;;;;2025475;29;20059;-96
2023/08/02 01:57:45;;;;;;;10.02;7.28;;;;;;;;;;2024987;29;20119;-96
2023/08/02 01:59:12;;;;;;;8.05;7.22;;;;;;;;;;2027253;29;20095;-96
2023/08/02 02:00:17;;;;;;;7.85;7.05;;;;;;;;;;2010182;29;20036;-96
2023/08/02 02:01:26;;;;;;;8.52;7.38;;;;;;;;;;2018015;29;20103;-96
2023/08/02 02:02:40;;;;;;;9.02;7.40;;;;;;;;;;2020963;29;20029;-96
2023/08/02 02:03:43;;;;;;;8.88;7.57;;;;;;;;;;2022047;29;20107;-96
2023/08/02 02:05:04;;;;;;;10.35;7.28;;;;;;;;;;2020699;29;20024;-95
2023/08/02 02:06:24;;;;;;;9.45;7.57;;;;;;;;;;2029438;29;20047;-96
2023/08/02 02:07:41;;;;;;;9.25;7.22;;;;;;;;;;2034129;29;20028;-95
2023/08/02 02:09:01;;;;;;;9.20;8.02;;;;;;;;;;2028287;29;20013;-96
2023/08/02 02:10:33;;;;;;;;;;;;;;;;;;;;;
2023/08/02 02:11:54;;;;;;;;;;;;;;;;;;;;;
2023/08/02 02:13:06;;;;;;;11.00;7.57;;;;;;;;;;1997209;29;20058;-96
2023/08/02 02:15:01;;;;;;;;;;;;;;;;;;;;;
2023/08/02 02:16:33;;;;;;;9.93;7.40;;;;;;;;;;2033685;29;20040;-96
2023/08/02 02:18:09;;;;;;;;;;;;;;;;;;;;;
2023/08/02 02:19:30;;;;;;;10.23;7.43;;;;;;;;;;2036791;29;20103;-96
2023/08/02 02:20:31;;;;;;;9.35;7.60;;;;;;;;;;2026621;29;20077;-94
2023/08/02 02:22:02;;;;;;;8.48;7.47;;;;;;;;;;2027100;29;20047;-96
2023/08/02 02:23:17;;;;;;;10.77;7.65;;;;;;;;;;2020167;29;20039;-96
2023/08/02 02:24:23;;;;;;;9.00;7.47;;;;;;;;;;2027366;29;20180;-95
2023/08/02 02:26:04;;;;;;;8.13;7.32;;;;;;;;;;2029351;29;20105;-96
2023/08/02 02:27:05;;;;;;;9.48;7.63;;;;;;;;;;2024959;29;20453;-96
2023/08/02 02:28:10;;;;;;;8.70;7.80;;;;;;;;;;2017773;29;20035;-94
2023/08/02 02:29:18;;;;;;;9.63;7.53;;;;;;;;;;2025522;29;20505;-95
2023/08/02 02:30:31;;;;;;;8.27;7.43;;;;;;;;;;2017291;29;20055;-96
2023/08/02 12:34:20;;;;;;;4.20;3.80;;;;;;;;;;295178;23;20297;-95
2023/08/02 12:35:33;;;;;;;4.63;4.22;;;;;;;;;;2033816;29;20115;-96
2023/08/02 12:36:34;;;;;;;4.72;4.22;;;;;;;;;;2026405;29;20048;-96
2023/08/02 12:37:40;;;;;;;4.40;4.03;;;;;;;;;;2026479;29;20115;-94
2023/08/02 12:38:49;;;;;;;4.47;4.07;;;;;;;;;;2033419;29;20028;-96
2023/08/02 12:39:58;;;;;;;4.40;4.00;;;;;;;;;;2034221;29;20500;-96
2023/08/02 12:41:05;;;;;;;4.93;4.25;;;;;;;;;;2035221;29;20039;-95
2023/08/02 12:45:41;;;;;;;4.97;4.47;;;;;;;;;;2018041;29;20081;-95
2023/08/02 12:46:42;;;;;;;5.40;4.90;;;;;;;;;;2022240;29;20025;-94
2023/08/02 12:47:44;;;;;;;5.07;4.68;;;;;;;;;;2021932;29;20037;-95
2023/08/02 12:48:52;;;;;;;5.55;5.05;;;;;;;;;;2025031;29;20085;-96
2023/08/02 12:50:05;;;;;;;7.28;5.40;;;;;;;;;;2030199;29;20040;-95
2023/08/02 14:02:45;;;;;;;6.45;5.65;;;;;;;;;;2081381;23;20055;-94
2023/08/02 14:03:46;;;;;;;5.60;4.88;;;;;;;;;;2042522;29;20036;-95
2023/08/02 14:04:47;;;;;;;5.32;4.82;;;;;;;;;;2036240;29;20032;-94
2023/08/02 14:05:47;;;;;;;6.00;5.50;;;;;;;;;;2034322;29;20052;-95
2023/08/02 14:06:51;;;;;;;5.70;5.20;;;;;;;;;;2042461;29;20050;-95
2023/08/02 14:07:53;;;;;;;5.68;5.07;;;;;;;;;;2042990;29;20036;-95
2023/08/02 14:08:53;;;;;;;5.47;4.90;;;;;;;;;;2041552;29;20039;-96
2023/08/02 14:09:56;;;;;;;6.13;4.90;;;;;;;;;;2029177;29;20136;-96
2023/08/02 14:10:58;;;;;;;6.45;5.13;;;;;;;;;;2035380;29;20035;-96
2023/08/02 14:12:03;;;;;;;5.40;4.90;;;;;;;;;;2043717;29;20118;-96
2023/08/02 14:13:06;;;;;;;5.53;5.07;;;;;;;;;;2034006;29;20505;-96
2023/08/02 15:28:07;;;;;;;7.45;6.07;;;;;;;;;;369232;23;20026;-93
2023/08/02 15:29:11;;;;;;;6.72;6.05;;;;;;;;;;2042038;29;20032;-95
2023/08/02 15:30:14;;;;;;;6.82;6.18;;;;;;;;;;2030233;29;20048;-96
2023/08/02 15:32:44;;;;;;;7.60;6.82;;;;;;;;;;2031536;29;20044;-96
2023/08/02 15:33:46;;;;;;;8.02;6.53;;;;;;;;;;2026825;29;20093;-94
2023/08/02 15:34:49;;;;;;;8.05;6.55;;;;;;;;;;2026814;29;20036;-95
2023/08/02 15:35:57;;;;;;;7.63;6.80;;;;;;;;;;2020336;29;20036;-94
2023/08/02 15:37:01;;;;;;;7.80;6.88;;;;;;;;;;2030456;29;20382;-95
2023/08/02 15:38:06;;;;;;;7.40;6.63;;;;;;;;;;2037005;29;20060;-95
2023/08/02 15:39:09;;;;;;;9.68;7.15;;;;;;;;;;2036388;29;20476;-95
2023/08/02 15:40:12;;;;;;;7.72;7.03;;;;;;;;;;2034664;29;20039;-93
2023/08/02 15:41:31;;;;;;;;;;;;;;;;;;;;;
2023/08/02 15:42:32;;;;;;;7.20;6.40;;;;;;;;;;2029959;29;20462;-93
2023/08/02 15:43:36;;;;;;;7.55;6.68;;;;;;;;;;2026289;29;20280;-94
2023/08/02 15:44:57;;;;;;;;;;;;;;;;;;;;;
2023/08/02 15:46:00;;;;;;;8.07;7.28;;;;;;;;;;2028871;29;20095;-96
2023/08/02 15:47:02;;;;;;;8.73;7.45;;;;;;;;;;2027142;29;20036;-94
2023/08/02 15:48:03;;;;;;;7.30;6.60;;;;;;;;;;2019167;29;20402;-95
2023/08/02 15:49:09;;;;;;;8.70;7.45;;;;;;;;;;2018758;29;20120;-95
2023/08/02 15:50:13;;;;;;;7.97;7.18;;;;;;;;;;2022797;29;20622;-93
2023/08/02 15:51:13;;;;;;;8.75;7.15;;;;;;;;;;2019611;29;20088;-96
2023/08/02 15:52:25;;;;;;;8.10;7.30;;;;;;;;;;2027276;29;20056;-95
2023/08/02 15:53:52;;;;;;;9.10;8.20;;;;;;;;;;2029712;29;20020;-94
2023/08/02 15:55:12;;;;;;;8.15;7.38;;;;;;;;;;2031841;29;20074;-95
2023/08/02 15:56:20;;;;;;;9.23;7.68;;;;;;;;;;2027478;29;20028;-95
2023/08/02 15:57:27;;;;;;;9.23;8.00;;;;;;;;;;2021357;29;20146;-94
2023/08/02 15:58:33;;;;;;;8.50;7.63;;;;;;;;;;2029490;29;20103;-93
2023/08/02 15:59:36;;;;;;;8.88;7.90;;;;;;;;;;2022627;29;20029;-96
2023/08/02 16:00:37;;;;;;;8.32;7.47;;;;;;;;;;2023506;29;20119;-91
2023/08/02 16:04:25;;;;;;;9.75;8.23;;;;;;;;;;2035398;29;20419;-95
2023/08/02 16:05:31;;;;;;;10.20;7.95;;;;;;;;;;2036167;29;20080;-95
2023/08/02 16:06:50;;;;;;;9.85;8.35;;;;;;;;;;2026452;29;20039;-94
2023/08/02 16:07:50;;;;;;;10.77;9.07;;;;;;;;;;2026462;29;20024;-95
2023/08/02 16:08:51;;;;;;;9.73;8.65;;;;;;;;;;1670200;29;10392636;-96
2023/08/02 16:09:54;;;;;;;9.45;8.55;;;;;;;;;;2004081;29;20061;-95
2023/08/02 16:10:55;;;;;;;8.80;7.90;;;;;;;;;;2010888;29;20057;-93
2023/08/02 16:11:57;;;;;;;9.48;8.07;;;;;;;;;;2025996;29;20481;-94
2023/08/02 16:13:25;;;;;;;10.20;9.15;;;;;;;;;;2027304;29;20044;-95
2023/08/02 16:22:55;;;;;;;11.23;9.45;;;;;;;;;;2028007;29;20065;-95
2023/08/02 16:23:55;;;;;;;12.18;9.60;;;;;;;;;;2024716;29;20049;-94
2023/08/02 16:25:01;;;;;;;10.40;9.27;;;;;;;;;;2017811;29;20033;-93
2023/08/02 16:26:06;;;;;;;10.57;9.25;;;;;;;;;;2026443;29;20017;-93
2023/08/02 16:28:26;;;;;;;10.38;9.25;;;;;;;;;;2290978;23;20132;-95
2023/08/02 16:29:29;;;;;;;9.90;8.90;;;;;;;;;;2019982;29;20108;-95
2023/08/02 16:30:30;;;;;;;11.38;9.35;;;;;;;;;;2020119;29;20501;-95
2023/08/02 16:31:30;;;;;;;9.60;8.63;;;;;;;;;;2024955;29;20059;-93
2023/08/02 16:32:31;;;;;;;10.38;8.95;;;;;;;;;;2014109;29;20032;-95
2023/08/02 16:37:08;;;;;;;10.80;8.98;;;;;;;;;;2033432;29;20096;-94
2023/08/02 16:38:09;;;;;;;11.75;9.32;;;;;;;;;;2025722;29;20017;-93
2023/08/02 16:39:09;;;;;;;10.10;8.80;;;;;;;;;;2015049;29;20072;-92
2023/08/02 16:40:13;;;;;;;11.52;8.70;;;;;;;;;;2015465;29;20049;-94
2023/08/02 16:41:24;;;;;;;8.98;8.07;;;;;;;;;;2023107;29;20112;-96
2023/08/02 16:42:25;;;;;;;;;;;;;;;;;;2021950;29;20029;-94
2023/08/02 16:43:29;;;;;;;9.85;8.55;;;;;;;;;;2015185;29;19971;-95
2023/08/02 16:44:35;;;;;;;11.18;8.38;;;;;;;;;;2016230;29;20471;-94
2023/08/02 16:45:36;;;;;;;10.55;9.45;;;;;;;;;;2011588;29;20403;-94
2023/08/02 16:46:37;;;;;;;11.15;9.25;;;;;;;;;;2013674;29;20135;-95
2023/08/02 16:47:39;;;;;;;8.93;8.02;;;;;;;;;;2013111;29;20025;-96
2023/08/02 16:49:04;;;;;;;9.25;8.43;;;;;;;;;;2012137;29;20029;-96
2023/08/02 16:50:25;;;;;;;9.50;8.45;;;;;;;;;;2025463;29;20036;-96
2023/08/02 16:51:26;;;;;;;10.77;8.35;;;;;;;;;;2018269;29;20123;-95
2023/08/02 16:52:26;;;;;;;10.50;9.00;;;;;;;;;;2010628;29;20050;-95
2023/08/02 16:53:27;;;;;;;11.23;8.82;;;;;;;;;;2017880;29;20021;-95
2023/08/02 16:54:29;;;;;;;9.95;8.82;;;;;;;;;;2018130;29;20035;-96
2023/08/02 16:55:30;;;;;;;9.93;8.93;;;;;;;;;;2019723;29;20041;-94
2023/08/02 16:56:30;;;;;;;10.05;9.05;;;;;;;;;;2017749;29;20021;-95
2023/08/02 16:57:33;;;;;;;9.48;8.52;;;;;;;;;;2010063;29;20434;-96
2023/08/02 16:58:33;;;;;;;9.38;8.38;;;;;;;;;;2011478;29;20033;-96
2023/08/02 17:04:13;;;;;;;9.60;8.20;;;;;;;;;;2004423;29;20097;-94
2023/08/02 17:05:19;;;;;;;9.75;8.75;;;;;;;;;;2016196;29;20062;-96
2023/08/02 17:06:35;;;;;;;9.40;8.48;;;;;;;;;;2022483;29;20010;-95
2023/08/02 17:07:38;;;;;;;9.48;8.18;;;;;;;;;;2019186;29;20136;-95
2023/08/02 17:08:39;;;;;;;9.68;8.68;;;;;;;;;;2019456;29;20025;-96
2023/08/02 22:43:48;;;;;;;12.18;10.13;;;;;;;;;;2542458;22;1475708;-96
2023/08/02 22:44:48;;;;;;;11.40;9.88;;;;;;;;;;2585872;23;20011;-95
2023/08/02 23:25:24;;;;;;;11.60;9.82;;;;;;;;;;2566884;23;20008;-96
2023/08/02 23:26:26;;;;;;;11.68;10.00;;;;;;;;;;2568784;23;19997;-96
2023/08/02 23:27:29;;;;;;;11.85;10.20;;;;;;;;;;2551760;23;20060;-96
2023/08/02 23:28:31;;;;;;;12.40;10.23;;;;;;;;;;2549379;23;20415;-96
2023/08/02 23:29:38;;;;;;;11.30;9.85;;;;;;;;;;2546837;23;20068;-96
